CCA225 ELLX-EDDH
Flight info
| Callsign | CCA225 |
|---|---|
| Flight time | N/A |
| Altitude | 25000 |
| Route | DIK5X DIK N853 ONUNE/N0428F230 N853 HMM M170 BASUM Y850 MUBZI M105 RIBSO RIBSO7A |
| Aircraft | B77L/H-SDE1E2E3FGHIJ2J3J4J5M1RWXY/LB1D1 |
Departure
| Time | 2026-05-05 14:09 |
|---|---|
| Airport | Luxembourg-Findel International Airport (ELLX) |
Arrival
| Time | N/A |
|---|---|
| Airport | Hamburg Helmut Schmidt Airport (EDDH) |
| Time | Latitude | Longitude | Altitude | Speed | Heading |
|---|---|---|---|---|---|
| 2026-05-05 13:49 | 49.63799 | 6.22741 | 1227 ft | 0 kts | 59° |
| 2026-05-05 14:01 | 49.63794 | 6.22730 | 1227 ft | 2 kts | 46° |
| 2026-05-05 14:01 | 49.63782 | 6.22716 | 1227 ft | 2 kts | 32° |
| 2026-05-05 14:02 | 49.63770 | 6.22703 | 1226 ft | 2 kts | 37° |
| 2026-05-05 14:02 | 49.63758 | 6.22688 | 1225 ft | 2 kts | 46° |
| 2026-05-05 14:02 | 49.63750 | 6.22670 | 1224 ft | 2 kts | 72° |
| 2026-05-05 14:02 | 49.63748 | 6.22647 | 1223 ft | 2 kts | 98° |
| 2026-05-05 14:03 | 49.63752 | 6.22625 | 1223 ft | 2 kts | 125° |
| 2026-05-05 14:03 | 49.63760 | 6.22612 | 1223 ft | 0 kts | 145° |
| 2026-05-05 14:03 | 49.63764 | 6.22609 | 1223 ft | 0 kts | 149° |
| 2026-05-05 14:03 | 49.63763 | 6.22609 | 1223 ft | 0 kts | 149° |
| 2026-05-05 14:05 | 49.63750 | 6.22626 | 1223 ft | 4 kts | 134° |
| 2026-05-05 14:05 | 49.63720 | 6.22669 | 1222 ft | 7 kts | 139° |
| 2026-05-05 14:05 | 49.63668 | 6.22726 | 1220 ft | 10 kts | 148° |
| 2026-05-05 14:05 | 49.63594 | 6.22787 | 1218 ft | 13 kts | 151° |
| 2026-05-05 14:06 | 49.63516 | 6.22866 | 1217 ft | 13 kts | 130° |
| 2026-05-05 14:06 | 49.63522 | 6.22977 | 1219 ft | 9 kts | 64° |
| 2026-05-05 14:06 | 49.63547 | 6.23044 | 1221 ft | 5 kts | 59° |
| 2026-05-05 14:06 | 49.63560 | 6.23080 | 1223 ft | 3 kts | 60° |
| 2026-05-05 14:07 | 49.63581 | 6.23136 | 1224 ft | 9 kts | 61° |
| 2026-05-05 14:07 | 49.63632 | 6.23273 | 1225 ft | 16 kts | 64° |
| 2026-05-05 14:07 | 49.63653 | 6.23419 | 1224 ft | 13 kts | 121° |
| 2026-05-05 14:07 | 49.63575 | 6.23498 | 1222 ft | 13 kts | 161° |
| 2026-05-05 14:08 | 49.63501 | 6.23458 | 1222 ft | 11 kts | 236° |
| 2026-05-05 14:08 | 49.63473 | 6.23382 | 1223 ft | 0 kts | 239° |
| 2026-05-05 14:08 | 49.63472 | 6.23381 | 1223 ft | 2 kts | 239° |
| 2026-05-05 14:08 | 49.63405 | 6.23202 | 1221 ft | 46 kts | 240° |
| 2026-05-05 14:09 | 49.63152 | 6.22524 | 1208 ft | 97 kts | 237° |
| 2026-05-05 14:09 | 49.62740 | 6.21410 | 1225 ft | 145 kts | 240° |
| 2026-05-05 14:09 | 49.62138 | 6.19807 | 1247 ft | 197 kts | 239° |
| 2026-05-05 14:09 | 49.61469 | 6.17949 | 1948 ft | 201 kts | 238° |
| 2026-05-05 14:10 | 49.60779 | 6.16208 | 3287 ft | 192 kts | 237° |
| 2026-05-05 14:10 | 49.60071 | 6.14368 | 3875 ft | 210 kts | 237° |
| 2026-05-05 14:10 | 49.59281 | 6.12287 | 3974 ft | 235 kts | 238° |
| 2026-05-05 14:10 | 49.58424 | 6.10019 | 4249 ft | 258 kts | 238° |
| 2026-05-05 14:11 | 49.57535 | 6.07668 | 5363 ft | 258 kts | 238° |
| 2026-05-05 14:11 | 49.56694 | 6.05221 | 6293 ft | 266 kts | 250° |
| 2026-05-05 14:11 | 49.56450 | 6.02399 | 7184 ft | 276 kts | 274° |
| 2026-05-05 14:11 | 49.57020 | 5.99576 | 8057 ft | 285 kts | 300° |
| 2026-05-05 14:12 | 49.58389 | 5.97333 | 8909 ft | 293 kts | 327° |
| 2026-05-05 14:12 | 49.60295 | 5.96263 | 9711 ft | 299 kts | 356° |
| 2026-05-05 14:12 | 49.62328 | 5.96661 | 10455 ft | 304 kts | 23° |
| 2026-05-05 14:12 | 49.64151 | 5.98401 | 10934 ft | 318 kts | 42° |
| 2026-05-05 14:13 | 49.65972 | 6.00485 | 11488 ft | 336 kts | 32° |
| 2026-05-05 14:13 | 49.68079 | 6.02133 | 12070 ft | 352 kts | 25° |
| 2026-05-05 14:13 | 49.70408 | 6.03614 | 12687 ft | 368 kts | 22° |
| 2026-05-05 14:13 | 49.72842 | 6.05076 | 13257 ft | 384 kts | 22° |
| 2026-05-05 14:14 | 49.75354 | 6.06569 | 13840 ft | 398 kts | 22° |
| 2026-05-05 14:14 | 49.77323 | 6.07739 | 14353 ft | 408 kts | 22° |
| 2026-05-05 14:14 | 49.79763 | 6.09189 | 15002 ft | 418 kts | 22° |
| 2026-05-05 14:14 | 49.82472 | 6.10800 | 15797 ft | 425 kts | 22° |
| 2026-05-05 14:15 | 49.85308 | 6.12240 | 16635 ft | 432 kts | 14° |
| 2026-05-05 14:15 | 49.88272 | 6.12950 | 17422 ft | 440 kts | 4° |
| 2026-05-05 14:15 | 49.91344 | 6.13060 | 18179 ft | 447 kts | 1° |
| 2026-05-05 14:15 | 49.94480 | 6.13068 | 18895 ft | 456 kts | 0° |
| 2026-05-05 14:16 | 49.97649 | 6.13073 | 19629 ft | 463 kts | 1° |
| 2026-05-05 14:16 | 50.00880 | 6.13082 | 20486 ft | 466 kts | 1° |
| 2026-05-05 14:16 | 50.04151 | 6.13094 | 21225 ft | 473 kts | 1° |
| 2026-05-05 14:16 | 50.07424 | 6.13108 | 21879 ft | 480 kts | 1° |
| 2026-05-05 14:17 | 50.10755 | 6.13124 | 22577 ft | 485 kts | 1° |
| 2026-05-05 14:17 | 50.14097 | 6.13140 | 23291 ft | 489 kts | 1° |
| 2026-05-05 14:17 | 50.17542 | 6.13158 | 24005 ft | 494 kts | 1° |
| 2026-05-05 14:17 | 50.20956 | 6.13176 | 24659 ft | 499 kts | 1° |
| 2026-05-05 14:18 | 50.24437 | 6.13195 | 25305 ft | 504 kts | 1° |
| 2026-05-05 14:18 | 50.27945 | 6.13215 | 25927 ft | 510 kts | 1° |
| 2026-05-05 14:18 | 50.31468 | 6.13626 | 26536 ft | 514 kts | 8° |
| 2026-05-05 14:18 | 50.35023 | 6.14471 | 26827 ft | 522 kts | 10° |
| 2026-05-05 14:19 | 50.38613 | 6.15378 | 26833 ft | 522 kts | 10° |
| 2026-05-05 14:19 | 50.42183 | 6.16285 | 26834 ft | 524 kts | 10° |
| 2026-05-05 14:19 | 50.45746 | 6.17189 | 26834 ft | 523 kts | 10° |
| 2026-05-05 14:19 | 50.49346 | 6.18103 | 26830 ft | 523 kts | 10° |
| 2026-05-05 14:20 | 50.52899 | 6.19006 | 26836 ft | 523 kts | 9° |
| 2026-05-05 14:20 | 50.56471 | 6.19915 | 26829 ft | 524 kts | 9° |
| 2026-05-05 14:20 | 50.60051 | 6.20826 | 26837 ft | 524 kts | 10° |
| 2026-05-05 14:20 | 50.63676 | 6.21751 | 26834 ft | 524 kts | 9° |
| 2026-05-05 14:21 | 50.67210 | 6.22845 | 26850 ft | 524 kts | 15° |
| 2026-05-05 14:21 | 50.70607 | 6.24681 | 26846 ft | 523 kts | 24° |
| 2026-05-05 14:21 | 50.73869 | 6.27343 | 26844 ft | 523 kts | 33° |
| 2026-05-05 14:21 | 50.76775 | 6.30650 | 26851 ft | 521 kts | 41° |
| 2026-05-05 14:22 | 50.79480 | 6.34453 | 26857 ft | 520 kts | 44° |
| 2026-05-05 14:22 | 50.82131 | 6.38311 | 26853 ft | 519 kts | 44° |
| 2026-05-05 14:22 | 50.84786 | 6.42190 | 26850 ft | 519 kts | 44° |
| 2026-05-05 14:22 | 50.87404 | 6.46021 | 26851 ft | 520 kts | 44° |
| 2026-05-05 14:23 | 50.90064 | 6.49921 | 26850 ft | 520 kts | 44° |
| 2026-05-05 14:23 | 50.92710 | 6.53806 | 26847 ft | 521 kts | 44° |
| 2026-05-05 14:23 | 50.95338 | 6.57669 | 26847 ft | 521 kts | 44° |
| 2026-05-05 14:23 | 50.97977 | 6.61556 | 26848 ft | 520 kts | 44° |
| 2026-05-05 14:24 | 51.00605 | 6.65433 | 26844 ft | 521 kts | 45° |
| 2026-05-05 14:24 | 51.03014 | 6.69535 | 26844 ft | 520 kts | 53° |
| 2026-05-05 14:24 | 51.05233 | 6.74076 | 26847 ft | 520 kts | 55° |
| 2026-05-05 14:24 | 51.07382 | 6.78593 | 26842 ft | 519 kts | 55° |
| 2026-05-05 14:25 | 51.09557 | 6.83179 | 26852 ft | 519 kts | 55° |
| 2026-05-05 14:25 | 51.11475 | 6.87234 | 26841 ft | 520 kts | 55° |
| 2026-05-05 14:25 | 51.13698 | 6.91947 | 26846 ft | 520 kts | 55° |
| 2026-05-05 14:25 | 51.15865 | 6.96550 | 26838 ft | 520 kts | 55° |
| 2026-05-05 14:26 | 51.18043 | 7.01182 | 26840 ft | 521 kts | 55° |
| 2026-05-05 14:26 | 51.20194 | 7.05766 | 26836 ft | 521 kts | 55° |
| 2026-05-05 14:26 | 51.22350 | 7.10367 | 26839 ft | 521 kts | 55° |
| 2026-05-05 14:26 | 51.24489 | 7.14940 | 26837 ft | 522 kts | 55° |
| 2026-05-05 14:27 | 51.26643 | 7.19553 | 26833 ft | 522 kts | 55° |
| 2026-05-05 14:27 | 51.28801 | 7.24183 | 26840 ft | 522 kts | 55° |
| 2026-05-05 14:27 | 51.30947 | 7.28795 | 26834 ft | 523 kts | 55° |
| 2026-05-05 14:27 | 51.33163 | 7.33410 | 26838 ft | 524 kts | 51° |
| 2026-05-05 14:28 | 51.35698 | 7.37524 | 26836 ft | 525 kts | 42° |
| 2026-05-05 14:28 | 51.38619 | 7.41059 | 26839 ft | 527 kts | 33° |
| 2026-05-05 14:28 | 51.41811 | 7.43891 | 26837 ft | 529 kts | 25° |
| 2026-05-05 14:28 | 51.45215 | 7.45990 | 26841 ft | 530 kts | 17° |
| 2026-05-05 14:29 | 51.48757 | 7.47751 | 26850 ft | 530 kts | 16° |
| 2026-05-05 14:29 | 51.52259 | 7.49461 | 26848 ft | 530 kts | 16° |
| 2026-05-05 14:29 | 51.55734 | 7.51166 | 26849 ft | 530 kts | 17° |
| 2026-05-05 14:29 | 51.59300 | 7.52928 | 26852 ft | 530 kts | 17° |
| 2026-05-05 14:30 | 51.62810 | 7.54671 | 26857 ft | 530 kts | 16° |
| 2026-05-05 14:30 | 51.66277 | 7.56400 | 26857 ft | 530 kts | 16° |
| 2026-05-05 14:30 | 51.69775 | 7.58190 | 26851 ft | 530 kts | 19° |
| 2026-05-05 14:30 | 51.73151 | 7.60543 | 26865 ft | 530 kts | 25° |
| 2026-05-05 14:31 | 51.76445 | 7.63210 | 26868 ft | 530 kts | 26° |
| 2026-05-05 14:31 | 51.79693 | 7.65880 | 26868 ft | 530 kts | 27° |
| 2026-05-05 14:31 | 51.82980 | 7.68654 | 26863 ft | 530 kts | 30° |
| 2026-05-05 14:31 | 51.85994 | 7.71946 | 26860 ft | 530 kts | 39° |
| 2026-05-05 14:32 | 51.88712 | 7.75899 | 26865 ft | 529 kts | 45° |
| 2026-05-05 14:32 | 51.91276 | 7.80123 | 26867 ft | 530 kts | 46° |
| 2026-05-05 14:32 | 51.93834 | 7.84396 | 26867 ft | 530 kts | 46° |
| 2026-05-05 14:32 | 51.96389 | 7.88677 | 26874 ft | 530 kts | 46° |
| 2026-05-05 14:33 | 51.98922 | 7.92926 | 26870 ft | 531 kts | 46° |
| 2026-05-05 14:33 | 52.01448 | 7.97171 | 26867 ft | 530 kts | 46° |
| 2026-05-05 14:33 | 52.04013 | 8.01487 | 26874 ft | 532 kts | 46° |
| 2026-05-05 14:33 | 52.06602 | 8.05846 | 26870 ft | 535 kts | 46° |
| 2026-05-05 14:34 | 52.09192 | 8.10215 | 26874 ft | 536 kts | 46° |
| 2026-05-05 14:34 | 52.11744 | 8.14527 | 26868 ft | 537 kts | 46° |
| 2026-05-05 14:34 | 52.14311 | 8.18872 | 26869 ft | 536 kts | 46° |
| 2026-05-05 14:34 | 52.16866 | 8.23205 | 26868 ft | 537 kts | 46° |
| 2026-05-05 14:35 | 52.19617 | 8.27336 | 26865 ft | 537 kts | 38° |
| 2026-05-05 14:35 | 52.22659 | 8.30779 | 26868 ft | 536 kts | 30° |
| 2026-05-05 14:35 | 52.25912 | 8.33715 | 26875 ft | 536 kts | 27° |
| 2026-05-05 14:35 | 52.29223 | 8.36591 | 26875 ft | 536 kts | 26° |
| 2026-05-05 14:36 | 52.32529 | 8.39461 | 26878 ft | 536 kts | 26° |
| 2026-05-05 14:36 | 52.35784 | 8.42292 | 26885 ft | 536 kts | 26° |
| 2026-05-05 14:36 | 52.39101 | 8.45187 | 26878 ft | 536 kts | 26° |
| 2026-05-05 14:36 | 52.42393 | 8.48067 | 26885 ft | 536 kts | 26° |
| 2026-05-05 14:37 | 52.45673 | 8.50944 | 26882 ft | 537 kts | 26° |
| 2026-05-05 14:37 | 52.48932 | 8.53808 | 26881 ft | 537 kts | 26° |
| 2026-05-05 14:37 | 52.52211 | 8.56694 | 26886 ft | 537 kts | 26° |
| 2026-05-05 14:37 | 52.55499 | 8.59594 | 26887 ft | 537 kts | 26° |
| 2026-05-05 14:38 | 52.58791 | 8.62504 | 26887 ft | 537 kts | 26° |
| 2026-05-05 14:38 | 52.62069 | 8.65404 | 26887 ft | 537 kts | 27° |
| 2026-05-05 14:38 | 52.65361 | 8.68321 | 26880 ft | 537 kts | 27° |
| 2026-05-05 14:38 | 52.68679 | 8.71267 | 26884 ft | 537 kts | 27° |
| 2026-05-05 14:39 | 52.71921 | 8.74122 | 26880 ft | 537 kts | 25° |
| 2026-05-05 14:39 | 52.75372 | 8.76488 | 26882 ft | 534 kts | 16° |
| 2026-05-05 14:39 | 52.78515 | 8.77875 | 26881 ft | 532 kts | 8° |
| 2026-05-05 14:39 | 52.82169 | 8.78642 | 26880 ft | 528 kts | 360° |
| 2026-05-05 14:40 | 52.85811 | 8.78754 | 26886 ft | 513 kts | 357° |
| 2026-05-05 14:40 | 52.89284 | 8.78751 | 26886 ft | 495 kts | 356° |
| 2026-05-05 14:40 | 52.92680 | 8.78737 | 26888 ft | 478 kts | 356° |
| 2026-05-05 14:40 | 52.95928 | 8.78774 | 26789 ft | 466 kts | 359° |
| 2026-05-05 14:41 | 52.99177 | 8.79338 | 26281 ft | 463 kts | 4° |
| 2026-05-05 14:41 | 53.02297 | 8.80044 | 25770 ft | 459 kts | 5° |
| 2026-05-05 14:41 | 53.05478 | 8.80774 | 25232 ft | 454 kts | 5° |
| 2026-05-05 14:41 | 53.08553 | 8.81478 | 24713 ft | 450 kts | 5° |
| 2026-05-05 14:42 | 53.11597 | 8.82174 | 24198 ft | 446 kts | 5° |
| 2026-05-05 14:42 | 53.14676 | 8.82878 | 23666 ft | 442 kts | 5° |
| 2026-05-05 14:42 | 53.17711 | 8.83573 | 23152 ft | 438 kts | 5° |
| 2026-05-05 14:42 | 53.20697 | 8.84257 | 22647 ft | 435 kts | 5° |
| 2026-05-05 14:43 | 53.23685 | 8.84941 | 22132 ft | 431 kts | 5° |
| 2026-05-05 14:43 | 53.26465 | 8.85579 | 21652 ft | 427 kts | 5° |
| 2026-05-05 14:43 | 53.29386 | 8.86249 | 21145 ft | 424 kts | 5° |
| 2026-05-05 14:43 | 53.32308 | 8.86923 | 20632 ft | 421 kts | 6° |
| 2026-05-05 14:44 | 53.35162 | 8.87991 | 20122 ft | 420 kts | 15° |
| 2026-05-05 14:44 | 53.37897 | 8.89721 | 19618 ft | 418 kts | 20° |
| 2026-05-05 14:44 | 53.40548 | 8.91593 | 19110 ft | 415 kts | 20° |
| 2026-05-05 14:44 | 53.43207 | 8.93483 | 18601 ft | 412 kts | 20° |
| 2026-05-05 14:45 | 53.45866 | 8.95376 | 18094 ft | 409 kts | 20° |
| 2026-05-05 14:45 | 53.48453 | 8.97218 | 17608 ft | 406 kts | 20° |
| 2026-05-05 14:45 | 53.51062 | 8.99078 | 17105 ft | 403 kts | 20° |
| 2026-05-05 14:45 | 53.53596 | 9.01037 | 16611 ft | 401 kts | 27° |
| 2026-05-05 14:46 | 53.55927 | 9.03552 | 16114 ft | 400 kts | 33° |
| 2026-05-05 14:46 | 53.58185 | 9.06239 | 15609 ft | 397 kts | 33° |
| 2026-05-05 14:46 | 53.60435 | 9.08931 | 15117 ft | 395 kts | 33° |
| 2026-05-05 14:46 | 53.62678 | 9.11619 | 14600 ft | 393 kts | 33° |
| 2026-05-05 14:47 | 53.64890 | 9.14271 | 13989 ft | 393 kts | 33° |
| 2026-05-05 14:47 | 53.67120 | 9.16948 | 13362 ft | 394 kts | 33° |
| 2026-05-05 14:47 | 53.69342 | 9.19618 | 12750 ft | 394 kts | 33° |
| 2026-05-05 14:47 | 53.71487 | 9.22461 | 12124 ft | 395 kts | 41° |
| 2026-05-05 14:48 | 53.73295 | 9.25924 | 11507 ft | 396 kts | 53° |
| 2026-05-05 14:48 | 53.74678 | 9.29906 | 10883 ft | 397 kts | 64° |
| 2026-05-05 14:48 | 53.75512 | 9.34356 | 10197 ft | 395 kts | 82° |
| 2026-05-05 14:48 | 53.75451 | 9.38844 | 9538 ft | 381 kts | 102° |
| 2026-05-05 14:49 | 53.74511 | 9.42927 | 8909 ft | 367 kts | 123° |
| 2026-05-05 14:49 | 53.72948 | 9.46246 | 8298 ft | 356 kts | 133° |
| 2026-05-05 14:49 | 53.71316 | 9.49204 | 7692 ft | 347 kts | 136° |
| 2026-05-05 14:49 | 53.69402 | 9.51561 | 7060 ft | 337 kts | 151° |
| 2026-05-05 14:50 | 53.67354 | 9.53381 | 6434 ft | 330 kts | 153° |
| 2026-05-05 14:50 | 53.65319 | 9.55099 | 5867 ft | 322 kts | 153° |
| 2026-05-05 14:50 | 53.63370 | 9.56707 | 5588 ft | 305 kts | 153° |
| 2026-05-05 14:50 | 53.61506 | 9.58224 | 5349 ft | 292 kts | 153° |
| 2026-05-05 14:51 | 53.59697 | 9.59681 | 5099 ft | 285 kts | 153° |
| 2026-05-05 14:51 | 53.57925 | 9.61097 | 4837 ft | 281 kts | 154° |
| 2026-05-05 14:51 | 53.56191 | 9.62461 | 4588 ft | 271 kts | 153° |
| 2026-05-05 14:51 | 53.54523 | 9.63755 | 4324 ft | 261 kts | 153° |
| 2026-05-05 14:52 | 53.52856 | 9.65031 | 3860 ft | 261 kts | 154° |
| 2026-05-05 14:52 | 53.51203 | 9.66267 | 3503 ft | 259 kts | 154° |
| 2026-05-05 14:52 | 53.49562 | 9.67470 | 3247 ft | 257 kts | 154° |
| 2026-05-05 14:52 | 53.48091 | 9.69008 | 3001 ft | 246 kts | 129° |
| 2026-05-05 14:53 | 53.47328 | 9.71388 | 2970 ft | 227 kts | 97° |
| 2026-05-05 14:53 | 53.47273 | 9.73953 | 2986 ft | 215 kts | 85° |
| 2026-05-05 14:53 | 53.47365 | 9.76409 | 2982 ft | 209 kts | 77° |
| 2026-05-05 14:53 | 53.47988 | 9.78499 | 3000 ft | 201 kts | 44° |
| 2026-05-05 14:54 | 53.49196 | 9.79589 | 2978 ft | 197 kts | 14° |
| 2026-05-05 14:54 | 53.50563 | 9.79891 | 2970 ft | 199 kts | 8° |
| 2026-05-05 14:54 | 53.51952 | 9.80155 | 2715 ft | 198 kts | 8° |
| 2026-05-05 14:54 | 53.53227 | 9.80803 | 2472 ft | 194 kts | 33° |
| 2026-05-05 14:55 | 53.54379 | 9.81952 | 2245 ft | 193 kts | 23° |
| 2026-05-05 14:55 | 53.55530 | 9.83059 | 2007 ft | 187 kts | 46° |
| 2026-05-05 14:55 | 53.56308 | 9.84657 | 1960 ft | 173 kts | 50° |
| 2026-05-05 14:55 | 53.56874 | 9.86387 | 1714 ft | 169 kts | 68° |
| 2026-05-05 14:56 | 53.57464 | 9.88048 | 1481 ft | 162 kts | 49° |
| 2026-05-05 14:56 | 53.58215 | 9.89419 | 1335 ft | 160 kts | 48° |
| 2026-05-05 14:56 | 53.58943 | 9.90843 | 1130 ft | 157 kts | 48° |
| 2026-05-05 14:56 | 53.59659 | 9.92162 | 818 ft | 148 kts | 49° |
| 2026-05-05 14:57 | 53.60309 | 9.93434 | 552 ft | 141 kts | 49° |
| 2026-05-05 14:57 | 53.60971 | 9.94688 | 276 ft | 154 kts | 48° |
| 2026-05-05 14:57 | 53.61740 | 9.96170 | 156 ft | 175 kts | 52° |
| 2026-05-05 14:57 | 53.62486 | 9.97679 | 31 ft | 155 kts | 51° |
| 2026-05-05 14:58 | 53.62991 | 9.98716 | 38 ft | 77 kts | 53° |